Time;durP1;ratioP1;P1;durP2;ratioP2;P2;SDS_P1;SDS_P2;PMS_P1;PMS_P2;Temp;Humidity;BMP_temperature;BMP_pressure;BME280_temperature;BME280_humidity;BME280_pressure;Samples;Min_cycle;Max_cycle;Signal;HPM_P1;HPM_P2
2023/10/09 00:01:14;;;;;;;8.45;3.67;;;15.60;99.90;;;15.83;100.00;101510.97;5225096;28;20051;-49
2023/10/09 00:03:51;;;;;;;8.77;3.67;;;15.60;99.90;;;15.83;100.00;101504.81;5226486;28;20040;-49
2023/10/09 00:06:37;;;;;;;8.48;4.03;;;15.60;99.90;;;15.80;100.00;101503.03;5244509;28;20422;-49
2023/10/09 00:09:17;;;;;;;9.82;3.95;;;15.60;99.90;;;15.77;100.00;101504.66;5243791;28;20144;-50
2023/10/09 00:11:56;;;;;;;7.65;3.60;;;15.60;99.90;;;15.75;100.00;101496.75;5244883;28;20047;-49
2023/10/09 00:14:33;;;;;;;7.05;2.97;;;15.60;99.90;;;15.74;100.00;101500.25;5217560;28;20047;-49
2023/10/09 00:17:18;;;;;;;8.07;3.83;;;15.50;99.90;;;15.72;100.00;101507.22;5244281;28;20594;-49
2023/10/09 00:19:54;;;;;;;7.07;3.53;;;15.50;99.90;;;15.68;100.00;101497.47;5244505;28;20558;-49
2023/10/09 00:22:28;;;;;;;8.60;3.80;;;15.50;99.90;;;15.66;100.00;101496.53;5228098;28;20036;-49
2023/10/09 00:25:21;;;;;;;7.78;3.60;;;15.40;99.90;;;15.64;100.00;101492.97;5225894;28;20364;-49
2023/10/09 00:27:54;;;;;;;8.98;3.63;;;15.40;99.90;;;15.62;100.00;101486.78;5226369;28;20062;-49
2023/10/09 00:30:29;;;;;;;9.60;3.97;;;15.40;99.90;;;15.62;100.00;101494.66;5221899;28;20535;-50
2023/10/09 00:33:07;;;;;;;5.80;3.00;;;15.40;99.90;;;15.61;100.00;101491.13;5227822;28;20339;-48
2023/10/09 00:35:54;;;;;;;6.78;2.97;;;15.40;99.90;;;15.59;100.00;101484.94;5240648;28;20053;-49
2023/10/09 00:38:33;;;;;;;8.95;3.70;;;15.30;99.90;;;15.59;100.00;101479.69;5238895;28;20080;-50
2023/10/09 00:41:11;;;;;;;8.90;3.63;;;15.40;99.90;;;15.59;100.00;101481.44;5239913;28;20057;-49
2023/10/09 00:43:44;;;;;;;7.00;2.78;;;15.40;99.90;;;15.59;100.00;101486.69;5242880;28;20529;-49
2023/10/09 00:46:23;;;;;;;7.30;3.50;;;15.40;99.90;;;15.60;100.00;101480.59;5226016;28;20041;-49
2023/10/09 00:49:01;;;;;;;6.80;3.17;;;15.40;99.90;;;15.58;100.00;101477.00;5226453;28;20048;-49
2023/10/09 00:51:35;;;;;;;7.22;3.17;;;15.40;99.90;;;15.57;100.00;101468.22;5244008;28;20052;-49
2023/10/09 00:54:14;;;;;;;7.72;3.33;;;15.40;99.90;;;15.58;100.00;101477.88;5243768;28;20569;-49
2023/10/09 00:56:57;;;;;;;8.52;3.75;;;15.40;99.90;;;15.57;100.00;101467.34;5244856;28;20664;-49
2023/10/09 00:59:31;;;;;;;8.63;3.35;;;15.30;99.90;;;15.55;100.00;101464.69;5236737;28;20048;-49
2023/10/09 01:02:05;;;;;;;7.35;3.22;;;15.30;99.90;;;15.51;100.00;101472.44;5241689;28;20056;-50
2023/10/09 01:04:43;;;;;;;7.97;3.30;;;15.30;99.90;;;15.47;100.00;101464.50;5218098;28;20049;-50
2023/10/09 01:07:25;;;;;;;6.95;3.13;;;15.30;99.90;;;15.42;100.00;101460.84;5226392;28;20100;-49
2023/10/09 01:09:59;;;;;;;6.93;3.03;;;15.30;99.90;;;15.38;100.00;101464.25;5243207;28;20069;-50
2023/10/09 01:12:31;;;;;;;7.38;3.25;;;15.20;99.90;;;15.35;100.00;101458.03;5244062;28;20076;-50
2023/10/09 01:15:07;;;;;;;7.05;3.00;;;15.20;99.90;;;15.28;100.00;101457.00;5226417;28;20514;-50
2023/10/09 01:17:45;;;;;;;6.82;3.53;;;15.10;99.90;;;15.24;100.00;101455.13;5230930;28;20411;-54
2023/10/09 01:20:30;;;;;;;7.90;3.25;;;15.00;99.90;;;15.20;100.00;101458.53;5225241;28;20040;-50
2023/10/09 01:23:04;;;;;;;5.72;2.90;;;15.00;99.90;;;15.15;100.00;101447.91;5222172;28;20049;-50
2023/10/09 01:25:45;;;;;;;7.53;2.97;;;14.90;99.90;;;15.12;100.00;101449.53;5226016;28;20072;-49
2023/10/09 01:28:18;;;;;;;7.20;3.03;;;14.90;99.90;;;15.11;100.00;101442.53;5223159;28;20063;-50
2023/10/09 01:30:51;;;;;;;7.82;3.08;;;14.90;99.90;;;15.09;100.00;101452.09;5243131;28;20593;-50
2023/10/09 01:33:28;;;;;;;7.72;3.10;;;14.90;99.90;;;15.07;100.00;101451.19;5236064;28;20055;-50
2023/10/09 01:36:01;;;;;;;5.65;2.50;;;14.90;99.90;;;15.03;100.00;101454.56;5226021;28;20455;-49
2023/10/09 01:38:41;;;;;;;6.80;2.55;;;14.80;99.90;;;14.99;100.00;101457.94;5243158;28;20040;-49
2023/10/09 01:41:19;;;;;;;7.55;3.25;;;14.80;99.90;;;14.97;100.00;101441.28;5224067;28;20439;-49
2023/10/09 01:44:00;;;;;;;7.22;3.40;;;14.80;99.90;;;14.98;100.00;101441.31;5240775;28;20454;-49
2023/10/09 01:46:33;;;;;;;6.82;2.95;;;14.80;99.90;;;15.00;100.00;101436.13;5238166;28;20324;-49
2023/10/09 01:49:16;;;;;;;7.40;3.17;;;14.80;99.90;;;15.02;100.00;101429.16;5217992;28;20080;-49
2023/10/09 01:51:50;;;;;;;6.25;2.90;;;14.80;99.90;;;15.01;100.00;101427.38;5222968;28;20143;-48
2023/10/09 01:54:36;;;;;;;6.57;2.85;;;14.80;99.90;;;14.98;100.00;101415.03;5242463;28;20041;-49
2023/10/09 01:57:12;;;;;;;6.35;3.05;;;14.80;99.90;;;14.99;100.00;101415.94;5224541;28;20507;-49
2023/10/09 01:59:48;;;;;;;6.22;3.10;;;14.80;99.90;;;15.03;100.00;101409.94;5241514;28;20306;-50
2023/10/09 02:02:31;;;;;;;6.30;2.70;;;14.80;99.90;;;15.03;100.00;101412.56;5220864;28;20067;-49
2023/10/09 02:05:09;;;;;;;7.07;2.78;;;14.80;99.90;;;15.06;100.00;101417.88;5218959;28;20550;-49
2023/10/09 02:07:44;;;;;;;6.15;2.95;;;14.80;99.90;;;15.04;100.00;101420.47;5221217;28;20049;-49
2023/10/09 02:10:32;;;;;;;6.28;2.85;;;14.80;99.90;;;15.02;100.00;101426.53;5219571;28;20055;-49
2023/10/09 02:13:07;;;;;;;5.68;2.65;;;14.80;99.90;;;14.97;100.00;101429.03;5225873;28;20048;-50
2023/10/09 02:15:53;;;;;;;5.22;2.47;;;14.80;99.90;;;14.92;100.00;101436.78;5239775;28;20499;-49
2023/10/09 02:18:52;;;;;;;6.35;2.92;;;14.70;99.90;;;14.90;100.00;101427.09;5224864;28;20450;-49
2023/10/09 02:21:33;;;;;;;6.40;2.47;;;14.70;99.90;;;14.88;100.00;101428.78;5225786;28;20047;-49
2023/10/09 02:24:26;;;;;;;6.57;2.70;;;14.70;99.90;;;14.87;100.00;101421.78;5237149;28;20073;-49
2023/10/09 02:27:08;;;;;;;6.43;2.50;;;14.70;99.90;;;14.88;100.00;101429.69;5222550;28;20052;-49
2023/10/09 02:29:42;;;;;;;7.10;3.10;;;14.70;99.90;;;14.90;100.00;101413.97;5223971;28;20055;-49
2023/10/09 02:32:24;;;;;;;7.15;2.55;;;14.70;99.90;;;14.90;100.00;101412.22;5222835;28;20504;-49
2023/10/09 02:35:03;;;;;;;9.35;2.80;;;14.70;99.90;;;14.89;100.00;101420.94;5233726;28;20044;-49
2023/10/09 02:37:38;;;;;;;6.57;2.90;;;14.70;99.90;;;14.90;100.00;101427.09;5220601;28;20451;-49
2023/10/09 02:40:22;;;;;;;4.88;2.47;;;14.80;99.90;;;14.90;100.00;101427.09;5223636;28;20080;-51
2023/10/09 02:42:56;;;;;;;7.28;2.60;;;14.70;99.90;;;14.88;100.00;101428.78;5242040;28;20066;-50
2023/10/09 02:45:35;;;;;;;5.30;3.20;;;14.70;99.90;;;14.87;100.00;101433.16;5214818;28;20411;-49
2023/10/09 02:48:10;;;;;;;6.65;3.05;;;14.70;99.90;;;14.87;100.00;101427.03;5225863;28;20049;-49
2023/10/09 02:50:44;;;;;;;6.38;2.63;;;14.70;99.90;;;14.87;100.00;101420.03;5222504;28;20511;-49
2023/10/09 02:53:19;;;;;;;6.40;2.75;;;14.70;99.90;;;14.86;100.00;101418.22;5225093;28;20638;-48
2023/10/09 02:56:11;;;;;;;7.07;2.90;;;14.70;99.90;;;14.88;100.00;101413.03;5223226;28;20052;-49
2023/10/09 02:58:48;;;;;;;7.20;3.08;;;14.70;99.90;;;14.89;100.00;101418.31;5236390;28;20040;-49
2023/10/09 03:01:19;;;;;;;8.27;3.20;;;14.70;99.90;;;14.91;100.00;101418.34;5224810;28;20044;-50
2023/10/09 03:03:52;;;;;;;5.63;2.75;;;14.70;99.90;;;14.91;100.00;101414.00;5218707;28;20102;-50
2023/10/09 03:06:30;;;;;;;6.20;2.75;;;14.70;99.90;;;14.92;100.00;101415.75;5229411;28;20044;-49
2023/10/09 03:09:16;;;;;;;6.45;2.80;;;14.70;99.90;;;14.93;100.00;101408.78;5240844;28;20051;-51
2023/10/09 03:11:53;;;;;;;5.85;2.75;;;14.70;99.90;;;14.92;100.00;101409.63;5226727;28;20139;-49
2023/10/09 03:14:28;;;;;;;5.80;2.65;;;14.70;99.90;;;14.91;100.00;101411.38;5228259;28;20135;-49
2023/10/09 03:17:02;;;;;;;4.90;2.55;;;14.70;99.90;;;14.90;100.00;101406.97;5228571;28;20048;-50
2023/10/09 03:19:37;;;;;;;7.55;3.00;;;14.70;99.90;;;14.90;100.00;101409.59;5241599;28;20040;-49
2023/10/09 03:22:10;;;;;;;6.57;2.55;;;14.70;99.90;;;14.91;100.00;101402.59;5244491;28;20054;-49
2023/10/09 03:24:44;;;;;;;5.85;2.75;;;14.70;99.90;;;14.92;100.00;101409.63;5243547;28;20044;-49
2023/10/09 03:27:17;;;;;;;5.88;2.58;;;14.70;99.90;;;14.93;100.00;101416.66;5222541;28;20497;-49
2023/10/09 03:29:53;;;;;;;6.95;3.28;;;14.70;99.90;;;14.92;100.00;101405.28;5243676;28;20072;-50
2023/10/09 03:32:25;;;;;;;6.10;3.00;;;14.70;99.90;;;14.92;100.00;101415.75;5228052;28;20509;-50
2023/10/09 03:34:59;;;;;;;6.55;2.72;;;14.70;99.90;;;14.92;100.00;101407.91;5245356;28;20052;-49
2023/10/09 03:37:35;;;;;;;6.68;3.00;;;14.70;99.90;;;14.92;100.00;101410.50;5228552;28;20072;-49
2023/10/09 03:40:15;;;;;;;6.70;2.78;;;14.70;99.90;;;14.93;100.00;101407.06;5240452;28;20143;-49
2023/10/09 03:42:48;;;;;;;6.55;3.08;;;14.70;99.90;;;14.92;100.00;101415.75;5228558;28;20102;-49
2023/10/09 03:45:27;;;;;;;5.40;2.50;;;14.70;99.90;;;14.93;100.00;101416.66;5230920;28;20130;-49
2023/10/09 03:48:08;;;;;;;7.43;2.95;;;14.80;99.90;;;14.93;100.00;101411.41;5243226;28;20143;-50
2023/10/09 03:50:43;;;;;;;7.72;3.08;;;14.80;99.90;;;14.90;100.00;101408.72;5225148;28;20127;-49
2023/10/09 03:53:16;;;;;;;6.68;2.90;;;14.70;99.90;;;14.89;100.00;101410.44;5228559;28;20527;-48
2023/10/09 03:55:49;;;;;;;6.22;3.03;;;14.70;99.90;;;14.90;100.00;101408.72;5225569;28;20044;-49
2023/10/09 03:58:21;;;;;;;6.93;2.80;;;14.70;99.90;;;14.90;100.00;101396.47;5232009;28;20515;-49
2023/10/09 04:00:55;;;;;;;6.65;3.22;;;14.70;99.90;;;14.92;100.00;101404.38;5226362;28;20568;-49
2023/10/09 04:03:27;;;;;;;5.03;2.60;;;14.70;99.90;;;14.93;100.00;101407.06;5232776;28;20060;-49
2023/10/09 04:06:00;;;;;;;7.13;2.90;;;14.70;99.90;;;14.95;100.00;101399.22;5224284;28;20053;-50
2023/10/09 04:08:33;;;;;;;6.22;2.95;;;14.80;99.90;;;14.96;100.00;101414.13;5244303;28;20059;-50
2023/10/09 04:11:15;;;;;;;7.07;3.17;;;14.70;99.90;;;14.96;100.00;101413.25;5227773;28;20098;-49
2023/10/09 04:13:49;;;;;;;5.65;2.90;;;14.80;99.90;;;14.96;100.00;101400.13;5230125;28;20308;-49
2023/10/09 04:16:51;;;;;;;5.35;3.05;;;14.80;99.90;;;14.96;100.00;101390.50;5227854;28;20415;-49
2023/10/09 04:19:23;;;;;;;5.70;2.50;;;14.80;99.90;;;14.99;100.00;101395.81;5226057;28;20048;-50
2023/10/09 04:21:58;;;;;;;7.82;3.40;;;14.80;99.90;;;15.00;100.00;101381.88;5226554;28;20055;-50
2023/10/09 04:24:41;;;;;;;6.75;2.67;;;14.80;99.90;;;15.01;100.00;101388.91;5227694;28;20045;-50
2023/10/09 04:27:13;;;;;;;6.95;2.88;;;14.80;99.90;;;15.04;100.00;101385.44;5227336;28;20067;-50
2023/10/09 04:29:48;;;;;;;5.85;2.75;;;14.80;99.90;;;15.07;100.00;101385.53;5227123;28;20049;-49
2023/10/09 04:32:24;;;;;;;5.10;2.83;;;14.80;99.90;;;15.08;100.00;101369.81;5242397;28;20503;-50
2023/10/09 04:35:19;;;;;;;7.63;2.72;;;14.90;99.90;;;15.12;100.00;101376.03;5223061;28;20500;-49
2023/10/09 04:38:00;;;;;;;5.53;2.53;;;14.90;99.90;;;15.13;100.00;101383.97;5229419;28;20127;-49
2023/10/09 04:40:48;;;;;;;6.30;2.63;;;14.90;99.90;;;15.14;100.00;101379.59;5227346;28;20040;-50
2023/10/09 04:43:26;;;;;;;6.22;2.80;;;14.90;99.90;;;15.16;100.00;101377.88;5241753;28;20059;-49
2023/10/09 04:46:07;;;;;;;7.15;3.10;;;15.00;99.90;;;15.18;100.00;101382.31;5221713;28;20075;-49
2023/10/09 04:48:45;;;;;;;7.63;2.97;;;15.00;99.90;;;15.22;100.00;101387.66;5220448;28;20110;-49
2023/10/09 04:51:34;;;;;;;7.10;3.30;;;15.00;99.90;;;15.24;100.00;101376.34;5227343;28;20127;-48
2023/10/09 04:54:33;;;;;;;6.13;2.58;;;15.00;99.90;;;15.27;100.00;101383.41;5229699;28;20093;-48
2023/10/09 04:57:17;;;;;;;7.45;3.78;;;15.10;99.90;;;15.30;100.00;101373.84;5230770;28;20457;-49
2023/10/09 04:59:51;;;;;;;6.63;2.90;;;15.10;99.90;;;15.32;100.00;101374.81;5223794;28;20114;-50
2023/10/09 05:02:24;;;;;;;7.65;2.90;;;15.10;99.90;;;15.34;100.00;101378.34;5241792;28;20060;-49
2023/10/09 05:05:16;;;;;;;7.38;3.30;;;15.10;99.90;;;15.34;100.00;101373.09;5242003;28;20041;-49
2023/10/09 05:07:54;;;;;;;5.55;3.30;;;15.10;99.90;;;15.37;100.00;101378.41;5222850;28;20059;-48
2023/10/09 05:10:27;;;;;;;7.18;2.75;;;15.20;99.90;;;15.39;100.00;101371.47;5223125;28;20048;-49
2023/10/09 05:12:59;;;;;;;5.85;2.60;;;15.20;99.90;;;15.39;100.00;101371.47;5240241;28;20055;-49
2023/10/09 05:15:34;;;;;;;4.72;2.55;;;15.20;99.90;;;15.41;100.00;101372.38;5237243;28;20140;-50
2023/10/09 05:18:09;;;;;;;7.03;3.00;;;15.20;99.90;;;15.41;100.00;101382.91;5228600;28;20053;-49
2023/10/09 05:21:05;;;;;;;6.22;3.08;;;15.20;99.90;;;15.42;100.00;101382.03;5224041;28;20048;-49
2023/10/09 05:23:44;;;;;;;5.85;3.10;;;15.30;99.90;;;15.41;100.00;101372.38;5226720;28;20051;-49
2023/10/09 05:26:37;;;;;;;7.00;2.85;;;15.20;99.90;;;15.41;100.00;101369.75;5225969;28;20052;-48
2023/10/09 05:29:19;;;;;;;5.43;2.30;;;15.20;99.90;;;15.43;100.00;101370.69;5235399;28;20048;-50
2023/10/09 05:32:03;;;;;;;6.53;2.90;;;15.20;99.90;;;15.45;100.00;101376.88;5226180;28;20190;-50
2023/10/09 05:35:04;;;;;;;5.90;2.55;;;15.20;99.90;;;15.47;100.00;101379.53;5222793;28;20059;-49
2023/10/09 05:37:32;;;;;;;6.20;2.92;;;15.30;99.90;;;15.47;100.00;101364.66;5241309;28;20495;-48
2023/10/09 05:40:22;;;;;;;7.20;3.10;;;15.30;99.90;;;15.47;100.00;101364.66;5224763;28;20503;-49
2023/10/09 05:42:59;;;;;;;6.45;2.60;;;15.30;99.90;;;15.49;100.00;101367.31;5239762;28;20068;-48
2023/10/09 05:51:41;;;;;;;5.93;2.67;;;15.40;99.90;;;15.54;100.00;101380.56;5233648;28;20049;-49
2023/10/09 05:54:23;;;;;;;5.38;2.72;;;15.40;99.90;;;15.53;100.00;101373.56;5234897;28;20080;-49
2023/10/09 05:58:24;;;;;;;8.07;3.35;;;15.40;99.90;;;15.54;100.00;101377.94;5221505;28;20067;-49
2023/10/09 06:05:51;;;;;;;7.55;3.60;;;15.40;99.90;;;15.60;100.00;101385.97;5214316;28;20416;-49
2023/10/09 06:08:27;;;;;;;;;;;15.40;99.90;;;15.62;100.00;101384.28;5229041;28;20045;-48
2023/10/09 06:11:05;;;;;;;5.50;3.00;;;15.40;99.90;;;15.63;100.00;101380.81;5220918;28;20370;-49
2023/10/09 06:13:45;;;;;;;6.32;3.13;;;15.40;99.90;;;15.63;100.00;101378.19;5224234;28;20059;-50
2023/10/09 06:16:19;;;;;;;5.22;2.38;;;15.50;99.90;;;15.65;100.00;101379.13;5222520;28;20040;-49
2023/10/09 06:19:07;;;;;;;7.18;2.85;;;15.40;99.90;;;15.66;100.00;101388.78;5222500;28;20055;-50
2023/10/09 06:21:40;;;;;;;6.03;2.80;;;15.50;99.90;;;15.69;100.00;101387.09;5222384;28;20045;-49
2023/10/09 06:24:18;;;;;;;5.55;2.45;;;15.50;99.90;;;15.69;100.00;101387.09;5225585;28;20044;-49
2023/10/09 06:27:12;;;;;;;5.03;2.75;;;15.50;99.90;;;15.72;100.00;101388.94;5241909;28;20131;-49
2023/10/09 06:30:13;;;;;;;6.15;2.75;;;15.50;99.90;;;15.74;100.00;101395.97;5219784;28;20053;-49
2023/10/09 06:35:35;;;;;;;5.25;2.75;;;15.50;99.90;;;15.76;100.00;101405.66;5221990;28;20045;-49
2023/10/09 06:43:53;;;;;;;5.72;2.72;;;15.60;99.90;;;15.80;100.00;101404.88;5225079;28;20036;-48
2023/10/09 06:52:15;;;;;;;5.78;2.53;;;15.70;99.90;;;15.93;100.00;101423.59;5210677;28;20138;-49
2023/10/09 06:54:50;;;;;;;6.05;2.45;;;15.70;99.90;;;15.96;100.00;101422.75;5226014;28;20507;-48
2023/10/09 07:03:12;;;;;;;6.50;3.22;;;15.80;99.90;;;16.20;100.00;101444.34;5184374;28;20420;-49
2023/10/09 07:06:04;;;;;;;6.43;3.22;;;15.90;99.90;;;16.33;100.00;101450.78;5225813;28;20442;-46
2023/10/09 07:08:38;;;;;;;5.97;2.78;;;16.00;99.90;;;16.43;100.00;101447.50;5225864;28;20079;-47
2023/10/09 07:11:22;;;;;;;5.72;2.90;;;16.10;99.90;;;16.51;100.00;101445.91;5222210;28;20053;-48
2023/10/09 07:13:58;;;;;;;7.70;3.30;;;16.20;99.90;;;16.63;100.00;101454.91;5222223;28;20052;-50
2023/10/09 07:16:38;;;;;;;6.95;3.28;;;16.40;99.90;;;16.67;100.00;101464.63;5221777;28;20045;-49
2023/10/09 07:19:35;;;;;;;6.43;2.50;;;16.40;99.90;;;16.70;100.00;101470.00;5221847;28;20049;-50
2023/10/09 07:22:16;;;;;;;7.63;3.60;;;16.40;99.90;;;16.73;100.00;101475.31;5223788;28;20840;-49
2023/10/09 07:24:56;;;;;;;5.68;2.85;;;16.50;99.90;;;16.77;100.00;101471.91;5225638;28;20487;-48
2023/10/09 07:27:43;;;;;;;7.00;3.17;;;16.50;99.90;;;16.86;100.00;101468.56;5224472;28;20151;-50
2023/10/09 07:33:16;;;;;;;10.70;3.45;;;16.80;99.90;;;17.34;100.00;101477.41;5220223;28;20048;-49
2023/10/09 07:35:57;;;;;;;7.00;3.10;;;17.10;99.90;;;17.53;100.00;101475.94;5220969;28;20045;-51
2023/10/09 07:38:29;;;;;;;7.55;3.03;;;17.30;99.90;;;17.72;100.00;101481.56;5223359;28;20029;-48
2023/10/09 07:41:33;;;;;;;8.25;3.60;;;17.50;99.90;;;17.86;100.00;101483.56;5221951;28;20055;-49
2023/10/09 07:44:19;;;;;;;7.20;3.17;;;17.60;99.90;;;17.99;100.00;101481.13;5224747;28;20128;-49
2023/10/09 07:47:13;;;;;;;7.25;3.30;;;17.80;99.90;;;18.07;100.00;101475.13;5225863;28;20056;-50
2023/10/09 07:49:54;;;;;;;7.22;2.72;;;17.90;99.90;;;18.17;100.00;101466.47;5225974;28;20098;-49
2023/10/09 07:52:29;;;;;;;;;;;18.00;99.90;;;18.26;100.00;101464.84;5226401;28;20147;-49
2023/10/09 07:55:03;;;;;;;6.53;2.85;;;18.00;99.90;;;18.38;100.00;101464.97;5226892;28;20018;-50
2023/10/09 07:57:42;;;;;;;7.53;3.15;;;18.10;99.90;;;18.51;100.00;101466.91;5229873;28;20469;-51
2023/10/09 08:03:09;;;;;;;6.57;2.80;;;18.30;99.90;;;18.77;100.00;101487.50;5238430;28;20057;-50
2023/10/09 08:05:45;;;;;;;7.18;2.92;;;18.40;99.90;;;18.81;100.00;101481.41;5225653;28;20060;-50
2023/10/09 08:14:02;;;;;;;6.47;2.78;;;18.60;99.90;;;18.89;100.00;101491.19;5228163;28;20064;-49
2023/10/09 08:16:37;;;;;;;9.20;3.50;;;18.60;99.90;;;18.94;100.00;101494.78;5231052;28;20036;-48
2023/10/09 08:19:32;;;;;;;8.45;2.85;;;18.70;99.90;;;19.01;100.00;101503.66;5243500;28;20097;-50
2023/10/09 08:22:37;;;;;;;8.70;3.20;;;18.70;99.90;;;19.06;100.00;101494.03;5245739;28;20048;-49
2023/10/09 08:25:25;;;;;;;8.75;3.40;;;18.80;99.90;;;19.08;100.00;101497.56;5228615;28;20495;-49
2023/10/09 08:28:39;;;;;;;8.63;2.90;;;18.80;99.90;;;19.10;100.00;101501.09;5245708;28;20048;-49
2023/10/09 08:31:03;;;;;;;6.88;2.88;;;18.90;99.90;;;19.14;100.00;101497.63;5228475;28;20051;-49
2023/10/09 08:33:42;;;;;;;7.45;3.15;;;18.90;99.90;;;19.19;100.00;101489.78;5228626;28;20064;-48
2023/10/09 08:36:22;;;;;;;6.70;2.85;;;19.00;99.90;;;19.21;100.00;101495.94;5245239;28;20040;-48
2023/10/09 08:38:58;;;;;;;6.13;2.92;;;19.00;99.90;;;19.28;100.00;101499.53;5228762;28;20040;-49
2023/10/09 08:41:31;;;;;;;9.10;3.40;;;19.00;99.90;;;19.32;100.00;101490.78;5240694;28;20784;-49
2023/10/09 08:44:05;;;;;;;6.72;2.80;;;19.00;99.90;;;19.36;100.00;101484.63;5231860;28;20041;-49
2023/10/09 08:46:37;;;;;;;7.90;2.90;;;19.10;99.90;;;19.37;100.00;101479.38;5223282;28;20041;-49
2023/10/09 08:49:11;;;;;;;7.75;3.40;;;19.10;99.90;;;19.39;100.00;101477.63;5227527;28;20549;-48
2023/10/09 08:51:43;;;;;;;6.68;2.90;;;19.10;99.90;;;19.36;100.00;101472.31;5226246;28;20123;-50
2023/10/09 08:54:17;;;;;;;9.82;3.58;;;19.10;99.90;;;19.37;100.00;101467.94;5240552;28;20135;-48
2023/10/09 08:56:54;;;;;;;8.45;3.42;;;19.10;99.90;;;19.38;100.00;101469.69;5225074;28;20067;-48
2023/10/09 08:59:26;;;;;;;6.97;3.35;;;19.10;99.90;;;19.35;100.00;101459.06;5223187;28;20489;-48
2023/10/09 09:01:59;;;;;;;9.35;3.67;;;19.10;99.90;;;19.34;100.00;101489.03;5220471;28;20137;-50
2023/10/09 09:04:37;;;;;;;7.80;3.25;;;19.10;99.90;;;19.36;100.00;101521.66;5242350;28;20102;-49
2023/10/09 09:07:28;;;;;;;8.05;3.42;;;19.10;99.90;;;19.39;100.00;101524.34;5239059;28;20056;-49
2023/10/09 09:10:17;;;;;;;8.75;3.10;;;19.10;99.90;;;19.48;100.00;101524.41;5218419;28;20052;-49
2023/10/09 09:12:53;;;;;;;9.65;3.17;;;19.20;99.90;;;19.53;100.00;101534.16;5222023;28;20178;-49
2023/10/09 09:15:28;;;;;;;6.15;2.90;;;19.20;99.90;;;19.52;100.00;101526.22;5224553;28;20511;-49
2023/10/09 09:18:08;;;;;;;5.72;3.00;;;19.20;99.90;;;19.53;100.00;101533.28;5223888;28;20048;-49
2023/10/09 09:20:41;;;;;;;6.20;2.75;;;19.20;99.90;;;19.59;100.00;101506.94;5221621;28;20595;-48
2023/10/09 09:23:14;;;;;;;5.55;2.92;;;19.20;99.90;;;19.63;100.00;101503.47;5226361;28;20071;-49
2023/10/09 09:25:58;;;;;;;5.85;2.67;;;19.20;99.90;;;19.61;100.00;101483.16;5225928;28;20086;-48
2023/10/09 09:28:38;;;;;;;7.07;2.78;;;19.20;99.90;;;19.57;100.00;101439.91;5237024;28;20069;-49
2023/10/09 09:31:13;;;;;;;6.97;2.55;;;19.20;99.90;;;19.51;100.00;101413.41;5225556;28;20040;-49
2023/10/09 09:33:48;;;;;;;7.55;3.20;;;19.10;99.90;;;19.52;100.00;101428.41;5224814;28;20469;-49
2023/10/09 09:36:26;;;;;;;;;;;19.10;99.90;;;19.59;100.00;101442.59;5222260;28;20411;-49
2023/10/09 09:39:01;;;;;;;8.40;3.25;;;19.20;99.90;;;19.70;100.00;101433.88;5235813;28;20259;-50
2023/10/09 09:41:35;;;;;;;6.93;3.05;;;19.30;99.90;;;19.78;100.00;101433.91;5222478;28;20052;-49
2023/10/09 09:44:08;;;;;;;7.93;3.67;;;19.30;99.90;;;19.79;100.00;101423.34;5225150;28;20037;-49
2023/10/09 09:46:42;;;;;;;6.25;2.92;;;19.40;99.90;;;19.88;100.00;101424.28;5224829;28;20063;-49
2023/10/09 09:49:21;;;;;;;6.38;2.92;;;19.40;99.90;;;20.04;100.00;101415.56;5220446;28;20041;-49
2023/10/09 09:51:53;;;;;;;8.75;3.22;;;19.50;99.90;;;20.22;100.00;101415.66;5240262;28;20048;-50
2023/10/09 09:54:28;;;;;;;7.13;3.30;;;19.70;99.90;;;20.36;100.00;101417.50;5225272;28;20044;-49
2023/10/09 09:57:08;;;;;;;6.97;3.25;;;19.80;99.90;;;20.43;100.00;101409.59;5240904;28;20418;-50
2023/10/09 09:59:49;;;;;;;;;;;19.90;99.90;;;20.48;100.00;101412.28;5220926;28;20049;-50
2023/10/09 10:02:33;;;;;;;6.80;2.83;;;19.90;99.90;;;20.55;100.00;101419.38;5222644;28;19924;-49
2023/10/09 10:05:11;;;;;;;6.85;2.80;;;20.00;99.90;;;20.58;100.00;101400.84;5221765;28;20496;-49
2023/10/09 10:07:49;;;;;;;5.43;2.78;;;20.10;99.90;;;20.64;100.00;101408.81;5236886;28;20076;-49
2023/10/09 10:10:39;;;;;;;6.00;2.65;;;20.10;99.90;;;20.71;100.00;101418.53;5232658;28;20044;-49
2023/10/09 10:13:15;;;;;;;5.85;2.80;;;20.10;99.90;;;20.83;100.00;101423.00;5229243;28;20139;-49
2023/10/09 10:16:00;;;;;;;3.83;2.30;;;20.20;99.90;;;21.17;100.00;101404.50;5222193;28;20059;-50
2023/10/09 10:18:35;;;;;;;5.93;2.58;;;20.50;99.90;;;21.54;100.00;101416.91;5222521;28;20056;-49
2023/10/09 10:21:17;;;;;;;;;;;20.70;99.90;;;21.70;100.00;101407.16;5222021;28;20479;-49
2023/10/09 10:23:49;;;;;;;6.22;2.85;;;21.00;99.90;;;21.81;100.00;101405.38;5221282;28;20022;-51
2023/10/09 10:26:25;;;;;;;6.05;2.47;;;21.10;99.90;;;21.93;100.00;101404.47;5216909;28;20045;-50
2023/10/09 10:29:24;;;;;;;5.60;2.70;;;21.20;99.90;;;22.05;100.00;101398.28;5221785;28;20056;-49
2023/10/09 10:32:00;;;;;;;5.10;2.33;;;21.40;99.90;;;22.13;100.00;101397.38;5229075;28;20047;-49
2023/10/09 10:34:57;;;;;;;4.07;2.13;;;21.50;99.90;;;22.19;100.00;101396.47;5219631;28;20048;-49
2023/10/09 10:37:44;;;;;;;7.53;3.08;;;21.50;99.90;;;22.19;100.00;101401.78;5221563;28;20048;-50
2023/10/09 10:43:31;;;;;;;6.28;2.45;;;21.50;99.90;;;22.21;100.00;101389.38;5223319;28;20471;-49
2023/10/09 10:46:13;;;;;;;6.53;2.15;;;21.60;99.90;;;22.21;100.00;101395.56;5223430;28;20037;-49
2023/10/09 10:48:46;;;;;;;5.70;2.17;;;21.60;99.90;;;22.23;100.00;101392.91;5223011;28;20041;-49
2023/10/09 10:51:21;;;;;;;5.07;2.38;;;21.60;99.90;;;22.26;100.00;101402.66;5241023;28;20577;-50
2023/10/09 10:54:26;;;;;;;4.68;2.00;;;21.60;99.90;;;22.28;100.00;101407.06;5225427;28;20122;-50
2023/10/09 10:56:51;;;;;;;20.50;10.95;;;21.60;99.90;;;22.27;100.00;101401.75;5227753;28;20048;-50
2023/10/09 10:59:24;;;;;;;15.48;8.13;;;21.60;99.90;;;22.24;100.00;101400.00;5238390;28;20055;-49
2023/10/09 11:02:13;;;;;;;13.35;6.68;;;21.60;99.90;;;22.22;100.00;101396.47;5219250;28;20048;-49
2023/10/09 11:04:53;;;;;;;11.82;6.70;;;21.60;99.90;;;22.26;100.00;101400.00;5236763;28;20445;-51
2023/10/09 11:07:26;;;;;;;12.55;6.88;;;21.60;99.90;;;22.28;100.00;101401.75;5235801;28;20044;-49
2023/10/09 11:10:08;;;;;;;15.68;7.20;;;21.70;99.90;;;22.30;100.00;101404.38;5220711;28;20559;-49
2023/10/09 11:13:25;;;;;;;11.93;5.95;;;21.70;99.90;;;22.31;100.00;101401.75;5223355;28;20132;-49
2023/10/09 11:15:44;;;;;;;9.20;4.93;;;21.70;99.90;;;22.28;100.00;101401.75;5222249;28;20127;-49
2023/10/09 11:18:19;;;;;;;8.95;4.38;;;21.70;99.90;;;22.28;100.00;101409.72;5223782;28;20126;-51
2023/10/09 11:21:22;;;;;;;8.93;4.43;;;21.70;99.90;;;22.31;100.00;101409.72;5223894;28;20147;-52
2023/10/09 11:23:58;;;;;;;9.70;4.35;;;21.70;99.90;;;22.38;100.00;101414.13;5220085;28;20051;-50
2023/10/09 11:26:31;;;;;;;8.73;4.28;;;21.80;99.90;;;22.42;100.00;101409.66;5218008;28;20635;-51
2023/10/09 11:29:23;;;;;;;7.78;3.75;;;21.90;99.90;;;22.40;100.00;101412.31;5224764;28;20048;-50
2023/10/09 11:32:05;;;;;;;6.35;3.30;;;21.80;99.90;;;22.40;100.00;101416.75;5229836;28;20037;-50
2023/10/09 11:34:38;;;;;;;6.53;3.17;;;21.80;99.90;;;22.41;100.00;101408.78;5244249;28;20044;-51
2023/10/09 11:37:15;;;;;;;8.20;3.22;;;21.80;99.90;;;22.39;100.00;101415.00;5227070;28;20412;-50
2023/10/09 11:39:56;;;;;;;5.97;2.92;;;21.80;99.90;;;22.36;100.00;101410.56;5228718;28;20084;-51
2023/10/09 11:42:35;;;;;;;7.82;2.75;;;21.80;99.90;;;22.36;100.00;101399.06;5236135;28;20045;-51
2023/10/09 11:45:23;;;;;;;5.10;2.28;;;21.80;99.90;;;22.38;100.00;101402.59;5225100;28;20045;-51